Mackeyville, Pennsylvania
Current Conditions -  °F | °C
As of 4:35 AM on Friday 31 Oct 2014 (Local Time) from KUNV Reporting Station
Overcast Overcast  
Wind Chill: 39°   Ceiling: 5000
Heat Index: 39°   Visibility: 10mi
Dew Point: 37°   Wind: 0mph
Humidity: 92%   Direction: NA
Pressure: 29.99"   Gusts: NA
Location:  41.05°N, 77.46°W
Report Text: KUNV 310835Z AUTO 00000KT 10SM OVC050 04/03 A2999 RMK AO2 T00410029
Loading
Personal Weather Stations






























Interactive Weather Map
Tropical Storm Tracking
New forecast layout! Learn more

10-Day Weather Forecast

Advertisements
Track Severe Weather on mobile